Time;durP1;ratioP1;P1;durP2;ratioP2;P2;SDS_P1;SDS_P2;PMS_P1;PMS_P2;Temp;Humidity;BMP_temperature;BMP_pressure;BME280_temperature;BME280_humidity;BME280_pressure;Samples;Min_cycle;Max_cycle;Signal;HPM_P1;HPM_P2
2023/03/17 00:00:00;;;;;;;142.70;60.50;;;;;;;-1.68;67.11;99345.33;435304;1251;109367;-40
2023/03/17 00:10:11;;;;;;;132.50;55.50;;;;;;;-1.71;66.82;99346.73;435261;1253;98056;-40
2023/03/17 00:30:29;;;;;;;154.00;60.20;;;;;;;-1.79;66.91;99340.90;435279;1252;98002;-41
2023/03/17 00:40:36;;;;;;;147.20;62.10;;;;;;;-1.88;67.12;99343.96;435305;1251;111987;-40
2023/03/17 01:00:50;;;;;;;119.60;53.30;;;;;;;-2.02;67.16;99338.23;435321;1251;99251;-40
2023/03/17 01:10:59;;;;;;;113.70;49.50;;;;;;;-1.95;67.23;99322.03;435260;1256;107835;-40
2023/03/17 01:21:07;;;;;;;105.90;48.40;;;;;;;-1.84;67.37;99308.04;435205;1253;98015;-40
2023/03/17 01:31:14;;;;;;;157.00;64.70;;;;;;;-1.91;67.45;99282.86;435259;1256;111485;-41
2023/03/17 01:41:21;;;;;;;160.20;62.30;;;;;;;-2.04;67.36;99278.45;435143;1256;108352;-40
2023/03/17 02:01:42;;;;;;;181.80;75.20;;;;;;;-2.40;67.75;99267.32;435240;1256;111580;-41
2023/03/17 02:32:00;;;;;;;127.00;54.80;;;;;;;-2.53;68.85;99235.06;435289;1256;106441;-40
2023/03/17 02:42:07;;;;;;;119.50;51.50;;;;;;;-2.39;68.90;99241.29;435949;1256;98021;-40
2023/03/17 02:52:14;;;;;;;157.50;64.80;;;;;;;-2.34;68.79;99241.89;435291;1256;111232;-40
2023/03/17 03:02:21;;;;;;;146.50;59.10;;;;;;;-2.50;68.82;99231.71;435169;1256;108540;-41
2023/03/17 03:12:29;;;;;;;142.40;64.20;;;;;;;-2.60;69.11;99249.31;435269;1251;98505;-40
2023/03/17 03:22:39;;;;;;;145.20;61.70;;;;;;;-2.71;69.15;99253.71;435231;1251;111628;-38
2023/03/17 03:32:47;;;;;;;127.60;53.60;;;;;;;-2.84;69.74;99221.66;435149;1256;107897;-39
2023/03/17 03:42:55;;;;;;;111.30;49.60;;;;;;;-2.79;69.76;99244.91;434830;1251;458463;-40
2023/03/17 03:53:02;;;;;;;110.50;50.20;;;;;;;-2.76;69.82;99243.32;435040;1256;109383;-41
2023/03/17 04:03:09;;;;;;;157.20;62.00;;;;;;;-2.82;70.39;99242.71;435255;1256;97921;-40
2023/03/17 04:13:16;;;;;;;156.20;61.90;;;;;;;-2.89;70.71;99242.23;435298;1256;111239;-40
2023/03/17 04:23:24;;;;;;;156.40;62.80;;;;;;;-2.90;71.20;99237.38;435247;1256;108475;-40
2023/03/17 04:33:31;;;;;;;112.00;48.60;;;;;;;-2.78;71.39;99252.73;435245;1253;99345;-40
2023/03/17 04:43:37;;;;;;;94.50;43.60;;;;;;;-2.67;71.72;99250.24;436346;1256;108159;-41
2023/03/17 04:53:45;;;;;;;89.60;41.00;;;;;;;-2.59;71.66;99257.50;435247;1253;99227;-40
2023/03/17 05:03:52;;;;;;;133.10;55.70;;;;;;;-2.57;71.50;99263.38;435257;1256;110763;-42
2023/03/17 05:14:00;;;;;;;130.10;58.50;;;;;;;-2.63;71.53;99260.06;435388;1256;107500;-40
2023/03/17 05:24:05;;;;;;;130.00;54.60;;;;;;;-2.53;71.61;99256.68;435229;1251;99224;-40
2023/03/17 05:34:12;;;;;;;137.70;60.00;;;;;;;-2.29;71.64;99267.69;435221;1254;111227;-41
2023/03/17 05:54:26;;;;;;;82.60;37.70;;;;;;;-0.72;71.77;99258.91;435219;1256;99297;-40
2023/03/17 06:04:33;;;;;;;105.40;45.20;;;;;;;0.26;71.37;99264.97;435344;1256;109339;-43
2023/03/17 06:14:41;;;;;;;100.00;44.40;;;;;;;1.01;70.51;99265.05;435292;1256;98020;-39
2023/03/17 06:24:48;;;;;;;95.70;43.30;;;;;;;1.43;69.41;99261.67;435296;1256;112189;-40
2023/03/17 06:34:55;;;;;;;67.10;31.40;;;;;;;1.97;68.17;99259.58;435260;1256;108504;-40
2023/03/17 06:45:03;;;;;;;57.70;25.30;;;;;;;3.00;67.59;99258.13;435278;1256;98841;-40
2023/03/17 06:55:12;;;;;;;53.60;23.10;;;;;;;3.91;65.51;99253.92;435329;1254;110276;-41
2023/03/17 07:05:17;;;;;;;60.40;22.60;;;;;;;4.64;63.36;99253.44;436341;1256;107646;-41
2023/03/17 07:15:24;;;;;;;41.20;18.30;;;;;;;4.86;61.88;99259.45;435259;1256;98363;-41
2023/03/17 07:25:35;;;;;;;42.30;17.20;;;;;;;5.11;60.13;99264.75;435753;1256;110001;-39
2023/03/17 07:35:43;;;;;;;38.60;17.60;;;;;;;5.22;58.43;99265.24;435436;1264;107333;-40
2023/03/17 07:45:50;;;;;;;27.90;15.40;;;;;;;5.44;57.81;99267.20;435374;1256;97922;-40
2023/03/17 07:55:58;;;;;;;33.10;15.00;;;;;;;5.54;55.79;99245.48;435737;1257;111315;-40
2023/03/17 08:06:05;;;;;;;33.40;14.20;;;;;;;5.84;55.51;99236.73;435218;1256;108765;-40
2023/03/17 08:16:11;;;;;;;29.20;14.40;;;;;;;6.23;53.52;99231.96;435286;1254;98281;-40
2023/03/17 08:36:24;;;;;;;27.40;11.50;;;;;;;7.12;52.09;99231.41;435397;1257;107952;-40
2023/03/17 08:46:33;;;;;;;22.80;12.20;;;;;;;7.36;49.90;99209.95;435099;1266;98587;-40
2023/03/17 09:06:49;;;;;;;21.60;7.60;;;;;;;7.75;47.94;99212.95;435212;1255;107132;-40
2023/03/17 09:17:10;;;;;;;16.40;6.00;;;;;;;8.27;48.16;99210.92;435242;1254;118379;-40
2023/03/17 09:27:17;;;;;;;10.00;5.00;;;;;;;8.43;46.49;99210.80;435176;1257;109611;-41
2023/03/17 09:58:11;;;;;;;15.00;6.60;;;;;;;9.16;44.20;99193.33;435066;1257;107613;-41
2023/03/17 10:08:23;;;;;;;14.30;5.40;;;;;;;9.33;43.08;99183.27;435264;1254;98860;-40
2023/03/17 10:18:42;;;;;;;14.20;6.10;;;;;;;9.22;40.91;99161.27;435205;1257;111567;-40
2023/03/17 10:28:50;;;;;;;23.20;7.20;;;;;;;9.49;41.72;99160.67;435181;1252;108547;-40
2023/03/17 10:38:57;;;;;;;12.80;6.80;;;;;;;9.57;41.04;99166.38;435315;1254;98585;-41
2023/03/17 10:49:09;;;;;;;17.80;7.10;;;;;;;9.56;39.87;99156.59;435278;1253;109101;-40
2023/03/17 10:59:18;;;;;;;17.40;6.20;;;;;;;9.68;40.36;99135.70;435148;1256;98839;-42
2023/03/17 11:19:36;;;;;;;11.80;5.60;;;;;;;10.04;39.65;99105.03;435115;1258;108716;-41
2023/03/17 11:30:08;;;;;;;11.00;6.10;;;;;;;10.17;39.34;99083.27;435282;1252;97979;-39
2023/03/17 11:40:20;;;;;;;14.40;6.70;;;;;;;10.27;37.73;99085.77;435249;1257;107712;-40
2023/03/17 11:50:27;;;;;;;13.80;7.10;;;;;;;10.24;37.73;99082.31;435433;1257;97987;-40
2023/03/17 12:00:36;;;;;;;13.60;5.60;;;;;;;10.34;35.67;99073.42;435609;1253;111506;-41
2023/03/17 12:10:48;;;;;;;10.40;4.90;;;;;;;10.38;35.92;99061.33;435120;1256;107059;-40
2023/03/17 12:31:12;;;;;;;8.90;5.00;;;;;;;10.63;34.96;99038.82;435297;1256;106690;-42
2023/03/17 12:41:40;;;;;;;14.70;5.70;;;;;;;10.64;33.88;99014.31;435286;1254;99333;-42
2023/03/17 12:51:50;;;;;;;15.20;6.10;;;;;;;10.85;33.42;99014.77;435213;1257;110634;-40
2023/03/17 13:01:56;;;;;;;11.30;5.40;;;;;;;10.89;33.45;99002.83;435279;1253;107400;-41
2023/03/17 13:12:03;;;;;;;23.20;6.60;;;;;;;10.86;33.40;99002.18;435311;1254;98015;-40
2023/03/17 13:22:37;;;;;;;15.30;6.30;;;;;;;10.65;34.46;99003.96;435241;1256;106870;-41
2023/03/17 13:32:44;;;;;;;23.90;5.90;;;;;;;10.75;34.05;98995.43;435169;1267;98822;-39
2023/03/17 13:42:57;;;;;;;10.00;5.60;;;;;;;10.93;33.54;98975.29;435217;1256;110995;-41
2023/03/17 13:53:09;;;;;;;9.60;5.70;;;;;;;11.00;33.21;98953.36;435252;1256;108476;-41
2023/03/17 14:03:17;;;;;;;11.00;6.10;;;;;;;10.93;32.74;98936.92;435298;1252;99266;-42
2023/03/17 14:13:27;;;;;;;10.60;5.20;;;;;;;11.08;31.90;98917.35;435185;1256;107338;-41
2023/03/17 14:33:42;;;;;;;16.00;6.70;;;;;;;10.68;32.86;98904.51;435387;1253;111161;-40
2023/03/17 14:43:50;;;;;;;13.10;6.20;;;;;;;10.55;32.59;98892.30;435278;1256;107051;-40
2023/03/17 14:54:00;;;;;;;18.80;7.50;;;;;;;10.37;32.20;98888.16;435236;1253;99136;-40
2023/03/17 15:04:11;;;;;;;13.30;6.90;;;;;;;10.33;34.08;98887.68;435292;1257;107795;-41
2023/03/17 15:14:25;;;;;;;13.30;8.00;;;;;;;10.19;33.83;98877.02;435290;1256;97969;-40
2023/03/17 15:24:36;;;;;;;15.40;7.70;;;;;;;10.03;34.39;98873.36;435195;1256;111201;-40
2023/03/17 15:34:44;;;;;;;14.10;8.00;;;;;;;9.99;34.23;98865.48;435266;1256;107740;-41
2023/03/17 15:44:51;;;;;;;15.70;7.20;;;;;;;9.95;33.52;98870.37;434820;1253;498094;-39
2023/03/17 15:55:00;;;;;;;18.50;7.30;;;;;;;9.84;33.09;98871.16;435241;1256;107723;-41
2023/03/17 16:05:07;;;;;;;15.50;7.60;;;;;;;9.71;33.06;98861.48;435211;1256;98012;-40
2023/03/17 16:15:14;;;;;;;23.10;10.90;;;;;;;9.51;33.64;98859.45;435277;1256;112082;-39
2023/03/17 16:25:31;;;;;;;14.90;8.10;;;;;;;9.19;34.93;98861.63;435230;1256;107893;-44
2023/03/17 16:35:39;;;;;;;25.10;9.60;;;;;;;8.85;35.75;98865.11;435300;1253;98817;-39
2023/03/17 16:45:46;;;;;;;25.90;10.70;;;;;;;8.50;36.77;98873.62;435295;1252;107887;-41
2023/03/17 16:55:55;;;;;;;25.40;14.20;;;;;;;8.16;37.71;98880.20;435310;1253;99218;-40
2023/03/17 17:06:02;;;;;;;33.10;14.20;;;;;;;7.83;38.57;98890.41;435161;1256;111873;-40
2023/03/17 17:16:13;;;;;;;24.60;11.50;;;;;;;7.50;39.14;98885.67;435085;1256;108282;-41
2023/03/17 17:36:27;;;;;;;24.30;12.50;;;;;;;6.99;40.42;98880.07;436245;1253;108550;-41
2023/03/17 17:46:36;;;;;;;26.40;12.20;;;;;;;6.78;40.68;98882.61;435319;1253;99249;-39
2023/03/17 17:56:45;;;;;;;30.10;13.30;;;;;;;6.57;41.10;98878.20;435279;1256;111449;-40
2023/03/17 18:06:52;;;;;;;29.70;13.00;;;;;;;6.37;41.36;98886.61;435237;1253;107579;-41
2023/03/17 18:17:00;;;;;;;26.80;11.70;;;;;;;6.20;41.59;98890.42;435249;1253;99244;-41
2023/03/17 18:27:05;;;;;;;28.50;13.20;;;;;;;6.03;42.02;98888.59;435251;1253;111878;-40
2023/03/17 18:37:16;;;;;;;34.70;13.80;;;;;;;5.89;42.35;98891.23;435220;1256;109522;-40
2023/03/17 18:47:23;;;;;;;36.50;14.90;;;;;;;5.68;42.73;98882.95;435306;1255;98010;-41
2023/03/17 18:57:31;;;;;;;25.70;12.60;;;;;;;5.47;43.17;98880.05;435189;1253;112105;-40
2023/03/17 19:07:39;;;;;;;27.40;14.90;;;;;;;5.35;43.51;98871.33;435280;1253;108654;-40
2023/03/17 19:27:52;;;;;;;27.00;11.60;;;;;;;5.30;43.94;98847.77;435243;1253;111508;-39
2023/03/17 19:38:02;;;;;;;21.50;11.10;;;;;;;5.32;44.10;98840.48;435180;1256;108379;-41
2023/03/17 19:48:10;;;;;;;30.00;11.50;;;;;;;5.29;44.13;98829.70;435113;1256;99148;-42
2023/03/17 19:58:17;;;;;;;24.50;11.30;;;;;;;5.21;44.33;98823.48;435177;1253;111785;-40
2023/03/17 20:08:25;;;;;;;23.40;11.90;;;;;;;5.15;44.50;98823.56;435190;1256;109021;-40
2023/03/17 20:18:33;;;;;;;35.20;14.70;;;;;;;5.14;44.50;98823.36;435322;1256;99253;-40
2023/03/17 20:28:39;;;;;;;31.10;13.60;;;;;;;5.08;44.57;98828.08;435362;1254;110425;-40
2023/03/17 20:38:46;;;;;;;36.10;16.70;;;;;;;5.02;44.82;98833.11;435981;1256;107955;-40
2023/03/17 20:48:57;;;;;;;68.90;25.60;;;;;;;4.90;45.05;98832.52;435303;1252;99218;-40
2023/03/17 20:59:08;;;;;;;43.70;17.60;;;;;;;4.75;45.27;98832.18;435225;1256;110235;-41
2023/03/17 21:09:15;;;;;;;37.60;16.00;;;;;;;4.60;45.51;98834.14;435188;1256;107918;-39
2023/03/17 21:19:22;;;;;;;33.00;14.90;;;;;;;4.45;45.80;98834.41;435178;1256;97966;-40
2023/03/17 21:29:31;;;;;;;31.70;13.70;;;;;;;4.30;46.08;98837.11;435310;1256;111722;-39
2023/03/17 21:39:38;;;;;;;35.00;15.20;;;;;;;4.19;46.46;98836.86;435268;1256;107152;-42
2023/03/17 21:59:53;;;;;;;46.30;20.00;;;;;;;3.90;47.10;98833.41;435393;1253;112406;-40
2023/03/17 22:30:14;;;;;;;34.70;16.50;;;;;;;3.56;48.18;98826.88;435341;1256;110729;-40
2023/03/17 22:40:19;;;;;;;34.40;15.10;;;;;;;3.40;48.48;98834.36;435204;1256;107397;-39
2023/03/17 22:50:26;;;;;;;29.00;14.60;;;;;;;3.23;49.17;98831.98;435252;1256;98429;-40
2023/03/17 23:00:35;;;;;;;34.70;15.60;;;;;;;2.89;49.39;98827.44;435060;1256;112035;-41
2023/03/17 23:10:41;;;;;;;46.30;19.80;;;;;;;2.68;49.79;98818.27;435107;1253;108940;-40
2023/03/17 23:20:48;;;;;;;49.90;18.80;;;;;;;2.64;50.45;98807.80;435175;1256;98336;-40
2023/03/17 23:30:56;;;;;;;40.20;19.90;;;;;;;2.53;50.64;98802.92;435179;1256;111463;-39
2023/03/17 23:41:04;;;;;;;45.10;18.70;;;;;;;2.38;50.91;98802.78;435279;1256;106599;-40
